createdAt,value
2023-01-19T00:02:16.705Z,12.93
2023-01-19T00:05:18.892Z,14.45
2023-01-19T00:08:21.124Z,13.13
2023-01-19T00:11:24.047Z,13.43
2023-01-19T00:14:26.380Z,17.60
2023-01-19T00:17:28.492Z,14.63
2023-01-19T00:20:35.632Z,11.70
2023-01-19T00:23:37.701Z,14.43
2023-01-19T00:26:43.026Z,15.10
2023-01-19T00:29:45.272Z,13.70
2023-01-19T00:32:47.347Z,14.52
2023-01-19T00:35:53.289Z,15.77
2023-01-19T00:38:55.405Z,16.17
2023-01-19T00:42:16.239Z,14.87
2023-01-19T00:45:20.814Z,8.50
2023-01-19T00:48:23.035Z,13.48
2023-01-19T00:51:25.583Z,12.77
2023-01-19T00:54:27.806Z,8.82
2023-01-19T00:57:29.949Z,15.87
2023-01-19T01:00:32.373Z,12.90
2023-01-19T01:03:34.515Z,14.15
2023-01-19T01:06:36.651Z,11.98
2023-01-19T01:09:39.007Z,12.88
2023-01-19T01:12:41.478Z,12.70
2023-01-19T01:15:58.735Z,10.77
2023-01-19T01:19:00.905Z,7.50
2023-01-19T01:22:02.955Z,10.65
2023-01-19T01:25:05.354Z,9.60
2023-01-19T01:28:08.977Z,6.80
2023-01-19T01:31:11.085Z,5.97
2023-01-19T01:34:13.296Z,11.48
2023-01-19T01:37:15.482Z,8.52
2023-01-19T01:40:18.644Z,12.70
2023-01-19T01:43:20.942Z,6.10
2023-01-19T01:46:23.096Z,10.10
2023-01-19T01:49:25.387Z,11.38
2023-01-19T01:52:29.593Z,10.27
2023-01-19T01:55:35.072Z,9.65
2023-01-19T01:58:39.110Z,9.00
2023-01-19T02:02:00.296Z,10.77
2023-01-19T02:05:09.646Z,11.40
2023-01-19T02:08:49.586Z,6.85
2023-01-19T02:12:12.545Z,9.57
2023-01-19T02:15:17.864Z,8.03
2023-01-19T02:18:23.200Z,7.10
2023-01-19T02:21:43.156Z,2.53
2023-01-19T02:24:45.442Z,5.05
2023-01-19T02:27:48.835Z,3.75
2023-01-19T02:30:51.037Z,2.87
2023-01-19T02:33:54.379Z,4.33
2023-01-19T02:37:13.817Z,5.93
2023-01-19T02:40:22.129Z,8.63
2023-01-19T02:43:25.262Z,5.75
2023-01-19T02:46:27.504Z,6.37
2023-01-19T02:49:30.367Z,5.97
2023-01-19T02:52:32.519Z,7.93
2023-01-19T02:55:34.685Z,6.70
2023-01-19T02:58:57.038Z,8.02
2023-01-19T03:02:47.985Z,9.93
2023-01-19T03:05:59.142Z,8.30
2023-01-19T03:09:20.069Z,6.82
2023-01-19T03:12:46.259Z,6.80
2023-01-19T03:16:14.718Z,8.50
2023-01-19T03:19:44.081Z,8.77
2023-01-19T03:22:50.901Z,4.87
2023-01-19T03:25:54.691Z,8.05
2023-01-19T03:29:00.705Z,10.20
2023-01-19T03:32:09.294Z,10.40
2023-01-19T03:35:14.450Z,9.83
2023-01-19T03:38:25.091Z,8.83
2023-01-19T03:41:28.713Z,7.07
2023-01-19T03:44:35.027Z,9.68
2023-01-19T03:47:37.514Z,8.20
2023-01-19T03:50:39.731Z,9.70
2023-01-19T03:53:42.135Z,4.83
2023-01-19T03:56:44.949Z,11.45
2023-01-19T03:59:47.005Z,7.65
2023-01-19T04:02:49.141Z,6.00
2023-01-19T04:05:51.729Z,8.13
2023-01-19T04:08:54.766Z,10.33
2023-01-19T04:11:57.458Z,8.55
2023-01-19T04:14:59.571Z,9.73
2023-01-19T04:18:01.944Z,9.75
2023-01-19T04:21:07.109Z,9.43
2023-01-19T04:24:10.518Z,7.37
2023-01-19T04:27:12.603Z,9.02
2023-01-19T04:30:15.203Z,10.80
2023-01-19T04:33:17.350Z,8.43
2023-01-19T04:36:19.511Z,8.13
2023-01-19T04:39:23.265Z,9.60
2023-01-19T04:42:25.358Z,8.70
2023-01-19T04:45:27.421Z,7.43
2023-01-19T04:48:29.856Z,9.45
2023-01-19T04:51:32.014Z,5.47
2023-01-19T04:54:34.153Z,9.10
2023-01-19T04:57:36.355Z,9.05
2023-01-19T05:00:41.178Z,11.43
2023-01-19T05:03:43.327Z,8.73
2023-01-19T05:06:45.685Z,8.50
2023-01-19T05:09:48.334Z,6.67
2023-01-19T05:12:51.392Z,6.25
2023-01-19T05:15:53.629Z,8.20
2023-01-19T05:18:55.822Z,6.87
2023-01-19T05:21:58.148Z,8.77
2023-01-19T05:25:01.887Z,7.20
2023-01-19T05:28:04.326Z,9.13
2023-01-19T05:31:06.692Z,8.65
2023-01-19T05:34:11.707Z,8.48
2023-01-19T05:37:14.474Z,7.23
2023-01-19T05:40:16.815Z,9.57
2023-01-19T05:43:18.926Z,9.85
2023-01-19T05:46:21.073Z,10.18
2023-01-19T05:49:23.312Z,9.32
2023-01-19T05:52:25.410Z,7.43
2023-01-19T05:55:28.039Z,7.23
2023-01-19T05:58:30.160Z,10.85
2023-01-19T06:01:38.846Z,9.00
2023-01-19T06:04:42.043Z,11.10
2023-01-19T06:07:44.195Z,7.73
2023-01-19T06:10:46.371Z,5.97
2023-01-19T06:13:48.600Z,9.40
2023-01-19T06:16:50.862Z,7.87
2023-01-19T06:19:53.087Z,5.40
2023-01-19T06:22:58.047Z,9.07
2023-01-19T06:26:00.279Z,8.40
2023-01-19T06:29:02.554Z,10.02
2023-01-19T06:32:04.978Z,7.30
2023-01-19T06:35:08.062Z,9.15
2023-01-19T06:38:10.249Z,10.47
2023-01-19T06:41:12.395Z,11.07
2023-01-19T06:44:14.562Z,10.02
2023-01-19T06:47:16.768Z,11.07
2023-01-19T06:50:18.990Z,9.30
2023-01-19T06:53:22.410Z,11.13
2023-01-19T06:56:24.594Z,7.83
2023-01-19T06:59:27.085Z,8.90
2023-01-19T07:02:29.552Z,13.43
2023-01-19T07:05:31.899Z,9.95
2023-01-19T07:08:35.342Z,13.30
2023-01-19T07:11:37.748Z,12.53
2023-01-19T07:14:39.982Z,12.30
2023-01-19T07:17:42.458Z,13.48
2023-01-19T07:20:46.954Z,8.52
2023-01-19T07:23:50.442Z,9.87
2023-01-19T07:26:52.555Z,12.60
2023-01-19T07:29:54.954Z,7.60
2023-01-19T07:32:58.981Z,9.30
2023-01-19T07:36:01.280Z,12.40
2023-01-19T07:39:03.395Z,10.90
2023-01-19T07:42:06.872Z,9.73
2023-01-19T07:45:09.446Z,12.63
2023-01-19T07:48:11.599Z,12.30
2023-01-19T07:51:18.113Z,10.70
2023-01-19T07:54:20.948Z,7.33
2023-01-19T07:57:24.233Z,10.70
2023-01-19T08:00:26.621Z,7.40
2023-01-19T08:03:28.668Z,13.18
2023-01-19T08:06:35.400Z,15.60
2023-01-19T08:09:37.440Z,12.23
2023-01-19T08:12:39.706Z,10.93
2023-01-19T08:15:41.830Z,13.30
2023-01-19T08:18:44.084Z,11.73
2023-01-19T08:21:46.577Z,11.27
2023-01-19T08:24:50.381Z,11.47
2023-01-19T08:27:54.979Z,9.77
2023-01-19T08:30:57.858Z,12.82
2023-01-19T08:34:00.171Z,12.73
2023-01-19T08:37:02.267Z,14.35
2023-01-19T08:40:04.773Z,15.63
2023-01-19T08:43:09.900Z,9.70
2023-01-19T08:46:12.664Z,13.20
2023-01-19T08:49:15.908Z,8.82
2023-01-19T08:52:18.020Z,9.88
2023-01-19T08:55:20.501Z,10.10
2023-01-19T08:58:22.650Z,13.33
2023-01-19T09:01:25.642Z,11.02
2023-01-19T09:04:28.063Z,11.10
2023-01-19T09:07:32.567Z,11.57
2023-01-19T09:10:39.656Z,13.50
2023-01-19T09:13:42.326Z,9.37
2023-01-19T09:16:44.587Z,12.07
2023-01-19T09:19:46.897Z,10.18
2023-01-19T09:22:49.519Z,13.85
2023-01-19T09:25:57.333Z,14.07
2023-01-19T09:28:59.991Z,10.20
2023-01-19T09:32:02.808Z,14.52
2023-01-19T09:35:05.468Z,10.18
2023-01-19T09:38:09.107Z,15.85
2023-01-19T09:41:22.736Z,7.47
2023-01-19T09:44:34.655Z,9.57
2023-01-19T09:47:38.503Z,12.35
2023-01-19T09:50:46.874Z,8.93
2023-01-19T09:54:12.159Z,16.73
2023-01-19T09:57:15.019Z,10.03
2023-01-19T10:00:18.752Z,15.80
2023-01-19T10:03:21.285Z,15.30
2023-01-19T10:06:23.801Z,15.55
2023-01-19T10:09:40.722Z,13.77
2023-01-19T10:13:04.871Z,11.30
2023-01-19T10:16:26.302Z,10.67
2023-01-19T10:19:41.367Z,15.80
2023-01-19T10:22:49.916Z,13.88
2023-01-19T10:25:52.614Z,13.52
2023-01-19T10:28:59.649Z,12.30
2023-01-19T10:32:33.619Z,14.90
2023-01-19T10:35:36.469Z,16.20
2023-01-19T10:38:38.639Z,13.52
2023-01-19T10:41:49.169Z,14.90
2023-01-19T10:44:51.315Z,13.40
2023-01-19T10:47:55.659Z,13.43
2023-01-19T10:51:05.986Z,10.57
2023-01-19T10:54:13.114Z,8.55
2023-01-19T10:57:26.542Z,12.15
2023-01-19T11:00:31.705Z,11.40
2023-01-19T11:03:33.797Z,9.13
2023-01-19T11:06:35.967Z,9.50
2023-01-19T11:09:38.082Z,11.10
2023-01-19T11:12:42.934Z,8.95
2023-01-19T11:15:47.503Z,9.93
2023-01-19T11:18:53.874Z,9.53
2023-01-19T11:22:21.872Z,16.45
2023-01-19T11:25:31.177Z,12.18
2023-01-19T11:28:37.252Z,14.38
2023-01-19T11:31:39.458Z,14.67
2023-01-19T11:34:41.685Z,13.53
2023-01-19T11:37:43.910Z,12.95
2023-01-19T11:40:57.710Z,11.38
2023-01-19T11:44:24.767Z,7.87
2023-01-19T11:47:42.937Z,15.17
2023-01-19T11:50:46.134Z,8.47
2023-01-19T11:53:52.588Z,11.12
2023-01-19T11:56:55.877Z,12.93
2023-01-19T12:00:03.630Z,12.35
2023-01-19T12:03:08.964Z,15.70
2023-01-19T12:06:18.437Z,9.97
2023-01-19T12:09:27.096Z,12.80
2023-01-19T12:12:35.539Z,14.55
2023-01-19T12:15:44.505Z,13.62
2023-01-19T12:18:59.556Z,8.87
2023-01-19T12:22:03.042Z,11.60
2023-01-19T12:25:25.356Z,10.32
2023-01-19T12:28:39.108Z,12.30
2023-01-19T12:31:43.365Z,12.75
2023-01-19T12:34:51.974Z,13.63
2023-01-19T12:37:54.140Z,6.47
2023-01-19T12:41:16.482Z,12.85
2023-01-19T12:44:25.119Z,10.55
2023-01-19T12:47:27.388Z,10.40
2023-01-19T12:50:38.068Z,10.70
2023-01-19T12:53:40.280Z,9.97
2023-01-19T12:56:42.542Z,11.20
2023-01-19T12:59:45.005Z,9.93
2023-01-19T13:02:55.996Z,14.55
2023-01-19T13:05:58.438Z,13.77
2023-01-19T13:09:01.456Z,16.37
2023-01-19T13:12:15.778Z,7.87
2023-01-19T13:15:35.935Z,9.23
2023-01-19T13:18:41.800Z,13.88
2023-01-19T13:21:47.018Z,10.67
2023-01-19T13:25:06.298Z,14.63
2023-01-19T13:28:10.330Z,11.98
2023-01-19T13:31:14.237Z,8.55
2023-01-19T13:34:23.103Z,10.50
2023-01-19T13:37:45.963Z,12.50
2023-01-19T13:40:48.859Z,14.67
2023-01-19T13:44:32.201Z,15.20
2023-01-19T13:47:46.924Z,14.00
2023-01-19T13:51:02.995Z,8.25
2023-01-19T13:54:06.372Z,14.57
2023-01-19T13:57:27.155Z,14.93
2023-01-19T14:00:31.063Z,13.55
2023-01-19T14:03:33.325Z,13.93
2023-01-19T14:06:44.682Z,13.62
2023-01-19T14:09:46.772Z,12.73
2023-01-19T14:13:02.914Z,14.13
2023-01-19T14:16:07.977Z,12.07
2023-01-19T14:19:10.199Z,14.77
2023-01-19T14:22:12.322Z,12.82
2023-01-19T14:25:29.763Z,10.50
2023-01-19T14:28:40.352Z,12.63
2023-01-19T14:31:48.837Z,13.13
2023-01-19T14:35:05.912Z,11.82
2023-01-19T14:38:14.284Z,8.38
2023-01-19T14:41:37.552Z,13.87
2023-01-19T14:44:40.455Z,16.07
2023-01-19T14:47:45.564Z,12.70
2023-01-19T14:51:02.338Z,10.40
2023-01-19T14:54:05.493Z,10.68
2023-01-19T14:57:13.236Z,12.77
2023-01-19T15:00:20.348Z,11.73
2023-01-19T15:03:26.829Z,12.07
2023-01-19T15:06:38.416Z,13.75
2023-01-19T15:09:41.074Z,14.02
2023-01-19T15:12:43.477Z,13.40
2023-01-19T15:15:45.733Z,14.83
2023-01-19T15:18:47.915Z,15.73
2023-01-19T15:21:51.445Z,15.20
2023-01-19T15:24:57.725Z,18.90
2023-01-19T15:28:00.239Z,24.90
2023-01-19T15:31:02.593Z,21.33
2023-01-19T15:34:04.653Z,21.25
2023-01-19T15:37:06.995Z,35.83
2023-01-19T15:40:11.403Z,19.85
2023-01-19T15:43:13.597Z,28.60
2023-01-19T15:46:18.707Z,26.57
2023-01-19T15:49:21.752Z,30.08
2023-01-19T15:52:23.900Z,21.87
2023-01-19T15:55:26.097Z,18.80
2023-01-19T15:58:28.271Z,17.40
2023-01-19T16:01:34.810Z,15.40
2023-01-19T16:04:36.907Z,18.92
2023-01-19T16:07:39.081Z,13.48
2023-01-19T16:10:42.698Z,15.65
2023-01-19T16:13:46.366Z,15.00
2023-01-19T16:16:49.367Z,13.53
2023-01-19T16:19:51.656Z,16.12
2023-01-19T16:22:56.516Z,16.77
2023-01-19T16:26:09.741Z,13.40
2023-01-19T16:29:11.975Z,16.93
2023-01-19T16:32:15.212Z,16.70
2023-01-19T16:35:17.646Z,15.60
2023-01-19T16:38:21.989Z,15.65
2023-01-19T16:41:24.411Z,17.27
2023-01-19T16:44:26.798Z,15.47
2023-01-19T16:47:28.922Z,16.67
2023-01-19T16:50:31.070Z,20.73
2023-01-19T16:53:37.202Z,17.25
2023-01-19T16:56:41.649Z,17.90
2023-01-19T16:59:45.287Z,19.53
2023-01-19T17:02:48.783Z,26.13
2023-01-19T17:05:53.172Z,32.35
2023-01-19T17:08:55.779Z,59.47
2023-01-19T17:11:58.588Z,42.15
2023-01-19T17:15:02.512Z,22.87
2023-01-19T17:18:07.200Z,26.50
2023-01-19T17:21:10.995Z,34.00
2023-01-19T17:24:14.243Z,29.90
2023-01-19T17:27:17.657Z,38.15
2023-01-19T17:30:20.873Z,24.43
2023-01-19T17:33:25.509Z,26.67
2023-01-19T17:36:32.688Z,27.58
2023-01-19T17:39:35.805Z,22.80
2023-01-19T17:42:43.428Z,34.25
2023-01-19T17:45:46.537Z,32.83
2023-01-19T17:49:02.380Z,31.30
2023-01-19T17:52:05.974Z,17.23
2023-01-19T17:55:09.666Z,16.55
2023-01-19T17:58:14.375Z,19.45
2023-01-19T18:01:24.029Z,20.17
2023-01-19T18:04:29.164Z,23.97
2023-01-19T18:07:33.519Z,23.85
2023-01-19T18:10:38.006Z,19.42
2023-01-19T18:13:43.791Z,22.40
2023-01-19T18:16:47.242Z,22.37
2023-01-19T18:19:52.587Z,19.67
2023-01-19T18:22:56.949Z,18.87
2023-01-19T18:26:11.589Z,21.45
2023-01-19T18:29:17.216Z,20.90
2023-01-19T18:32:21.313Z,27.40
2023-01-19T18:35:24.831Z,21.93
2023-01-19T18:38:29.284Z,22.23
2023-01-19T18:41:36.170Z,25.52
2023-01-19T18:44:39.269Z,23.67
2023-01-19T18:47:42.883Z,22.40
2023-01-19T18:50:46.922Z,24.73
2023-01-19T18:53:52.114Z,22.92
2023-01-19T18:56:56.102Z,44.30
2023-01-19T18:59:59.891Z,23.35
2023-01-19T19:03:06.583Z,23.90
2023-01-19T19:06:11.338Z,30.47
2023-01-19T19:09:15.886Z,65.97
2023-01-19T19:12:20.431Z,43.70
2023-01-19T19:15:23.515Z,38.33
2023-01-19T19:18:26.967Z,73.80
2023-01-19T19:21:30.722Z,56.20
2023-01-19T19:24:34.536Z,48.40
2023-01-19T19:27:38.770Z,53.95
2023-01-19T19:30:42.114Z,85.47
2023-01-19T19:33:46.249Z,28.00
2023-01-19T19:36:50.053Z,50.37
2023-01-19T19:39:53.193Z,59.85
2023-01-19T19:42:58.729Z,35.28
2023-01-19T19:46:11.139Z,58.20
2023-01-19T19:49:14.761Z,51.63
2023-01-19T19:52:18.251Z,59.13
2023-01-19T19:55:21.782Z,38.50
2023-01-19T19:58:26.290Z,46.55
2023-01-19T20:01:33.797Z,42.33
2023-01-19T20:04:39.867Z,43.60
2023-01-19T20:07:47.734Z,55.22
2023-01-19T20:10:51.624Z,30.50
2023-01-19T20:13:55.950Z,42.17
2023-01-19T20:16:59.607Z,36.33
2023-01-19T20:20:04.599Z,43.80
2023-01-19T20:23:09.649Z,45.87
2023-01-19T20:26:15.361Z,43.75
2023-01-19T20:29:20.694Z,38.35
2023-01-19T20:32:25.757Z,53.80
2023-01-19T20:35:31.471Z,53.87
2023-01-19T20:38:35.032Z,41.83
2023-01-19T20:41:43.926Z,49.28
2023-01-19T20:44:47.398Z,57.72
2023-01-19T20:47:51.761Z,47.83
2023-01-19T20:51:01.238Z,51.87
2023-01-19T20:54:04.821Z,36.13
2023-01-19T20:57:08.457Z,32.53
2023-01-19T21:00:14.605Z,53.83
2023-01-19T21:03:19.665Z,40.25
2023-01-19T21:06:25.567Z,36.30
2023-01-19T21:09:28.584Z,37.58
2023-01-19T21:12:31.168Z,40.00
2023-01-19T21:15:33.771Z,34.35
2023-01-19T21:18:36.187Z,22.77
2023-01-19T21:21:38.730Z,28.30
2023-01-19T21:24:42.175Z,23.87
2023-01-19T21:27:46.514Z,20.25
2023-01-19T21:30:50.293Z,22.92
2023-01-19T21:33:54.474Z,21.10
2023-01-19T21:36:56.782Z,26.20
2023-01-19T21:39:59.133Z,25.40
2023-01-19T21:43:01.367Z,19.77
2023-01-19T21:46:11.110Z,23.35
2023-01-19T21:49:18.356Z,25.98
2023-01-19T21:52:20.597Z,21.47
2023-01-19T21:55:22.659Z,24.40
2023-01-19T21:58:24.900Z,32.60
2023-01-19T22:01:27.094Z,36.25
2023-01-19T22:04:29.941Z,32.40
2023-01-19T22:07:33.131Z,33.30
2023-01-19T22:10:37.440Z,35.33
2023-01-19T22:13:40.563Z,32.85
2023-01-19T22:16:42.740Z,27.25
2023-01-19T22:19:46.613Z,24.50
2023-01-19T22:22:48.712Z,24.30
2023-01-19T22:25:50.763Z,27.02
2023-01-19T22:28:57.226Z,25.65
2023-01-19T22:31:59.441Z,27.50
2023-01-19T22:35:03.427Z,32.40
2023-01-19T22:38:05.795Z,29.40
2023-01-19T22:41:16.624Z,26.02
2023-01-19T22:44:21.205Z,24.83
2023-01-19T22:47:23.260Z,25.52
2023-01-19T22:50:25.350Z,17.27
2023-01-19T22:53:28.022Z,27.00
2023-01-19T22:56:32.208Z,24.98
2023-01-19T22:59:34.316Z,23.40
2023-01-19T23:02:36.450Z,22.30
2023-01-19T23:05:38.825Z,18.10
2023-01-19T23:08:41.926Z,18.83
2023-01-19T23:11:48.585Z,16.98
2023-01-19T23:14:50.646Z,22.37
2023-01-19T23:17:53.764Z,21.23
2023-01-19T23:20:56.272Z,20.15
2023-01-19T23:24:04.204Z,19.50
2023-01-19T23:27:06.408Z,18.12
2023-01-19T23:30:09.215Z,21.45
2023-01-19T23:33:11.328Z,21.62
2023-01-19T23:36:14.602Z,20.67
2023-01-19T23:39:20.136Z,28.63
2023-01-19T23:42:22.513Z,27.92
2023-01-19T23:45:24.687Z,25.27
2023-01-19T23:48:26.849Z,25.40
2023-01-19T23:51:31.967Z,26.10
2023-01-19T23:54:34.189Z,24.40
2023-01-19T23:57:36.345Z,21.15
